Time;durP1;ratioP1;P1;durP2;ratioP2;P2;SDS_P1;SDS_P2;PMS_P1;PMS_P2;Temp;Humidity;BMP_temperature;BMP_pressure;BME280_temperature;BME280_humidity;BME280_pressure;Samples;Min_cycle;Max_cycle;Signal;HPM_P1;HPM_P2
2022/11/29 00:01:10;;;;;;;3.08;0.55;;;10.60;99.90;;;;;;5018429;28;20500;-72
2022/11/29 00:03:37;;;;;;;2.08;0.55;;;10.50;99.90;;;;;;5015212;28;20523;-72
2022/11/29 00:06:08;;;;;;;3.13;1.00;;;10.30;99.90;;;;;;5014045;28;20440;-72
2022/11/29 00:08:35;;;;;;;1.65;0.52;;;10.30;99.90;;;;;;5020989;28;20076;-70
2022/11/29 00:11:09;;;;;;;2.20;0.70;;;10.40;99.90;;;;;;5017305;28;20045;-71
2022/11/29 00:13:36;;;;;;;3.58;0.90;;;10.40;99.90;;;;;;5018549;28;20751;-72
2022/11/29 00:16:08;;;;;;;3.08;0.70;;;10.20;99.90;;;;;;5000369;28;20052;-71
2022/11/29 00:18:34;;;;;;;2.90;0.77;;;10.10;99.90;;;;;;5019600;28;20041;-70
2022/11/29 00:21:06;;;;;;;3.60;0.90;;;10.00;99.90;;;;;;5010612;28;20050;-72
2022/11/29 00:23:32;;;;;;;3.92;0.93;;;10.10;99.90;;;;;;5009164;28;20037;-71
2022/11/29 00:26:03;;;;;;;3.25;0.85;;;10.00;99.90;;;;;;5018625;28;20363;-71
2022/11/29 00:28:29;;;;;;;2.78;0.80;;;10.10;99.90;;;;;;5020648;28;20116;-71
2022/11/29 00:30:56;;;;;;;3.55;0.70;;;10.00;99.90;;;;;;5019069;28;20529;-71
2022/11/29 00:33:22;;;;;;;;;;;10.00;99.90;;;;;;5017902;28;20048;-72
2022/11/29 00:35:49;;;;;;;3.22;0.98;;;9.90;99.90;;;;;;5016425;28;20307;-72
2022/11/29 00:38:14;;;;;;;2.78;0.88;;;9.90;99.90;;;;;;5015524;28;20038;-71
2022/11/29 00:40:40;;;;;;;1.98;0.55;;;9.80;99.90;;;;;;5019614;28;20109;-71
2022/11/29 00:43:06;;;;;;;3.05;0.60;;;9.80;99.90;;;;;;4994905;28;20099;-71
2022/11/29 00:45:32;;;;;;;3.28;0.80;;;9.60;99.90;;;;;;5021935;28;20045;-72
2022/11/29 00:47:59;;;;;;;4.57;0.70;;;9.60;99.90;;;;;;5013829;28;20044;-71
2022/11/29 00:50:24;;;;;;;4.10;0.70;;;9.60;99.90;;;;;;5023378;28;20503;-71
2022/11/29 00:52:50;;;;;;;2.30;0.77;;;9.50;99.90;;;;;;5018000;28;20034;-72
2022/11/29 00:55:16;;;;;;;4.22;1.38;;;9.40;99.90;;;;;;5028514;28;20397;-72
2022/11/29 00:57:42;;;;;;;2.58;0.93;;;9.30;99.90;;;;;;5021862;28;20386;-72
2022/11/29 01:00:08;;;;;;;6.40;1.00;;;9.30;99.90;;;;;;5000839;28;20117;-72
2022/11/29 01:02:34;;;;;;;3.97;0.63;;;9.30;99.90;;;;;;5021426;28;20030;-72
2022/11/29 01:05:00;;;;;;;3.40;0.80;;;9.30;99.90;;;;;;5025881;28;20034;-72
2022/11/29 01:07:26;;;;;;;3.95;0.60;;;9.30;99.90;;;;;;5021338;28;20041;-71
2022/11/29 01:09:53;;;;;;;3.38;0.65;;;9.40;99.90;;;;;;5026501;28;20038;-71
2022/11/29 01:12:18;;;;;;;2.15;0.52;;;9.40;99.90;;;;;;5024270;28;20038;-71
2022/11/29 01:14:44;;;;;;;3.08;0.63;;;9.40;99.90;;;;;;5019790;28;20041;-71
2022/11/29 01:17:10;;;;;;;2.13;0.60;;;9.40;99.90;;;;;;5017988;28;20504;-72
2022/11/29 01:19:37;;;;;;;2.05;0.75;;;9.50;99.90;;;;;;5000369;28;20105;-71
2022/11/29 01:22:02;;;;;;;3.03;0.63;;;9.40;99.90;;;;;;5016149;28;20037;-70
2022/11/29 01:24:29;;;;;;;3.25;0.93;;;9.50;99.90;;;;;;5015385;28;20038;-71
2022/11/29 01:26:55;;;;;;;3.35;0.80;;;9.40;99.90;;;;;;5018561;28;20516;-72
2022/11/29 01:29:21;;;;;;;3.92;0.80;;;9.40;99.90;;;;;;5019837;28;20026;-72
2022/11/29 01:31:46;;;;;;;2.25;0.70;;;9.40;99.90;;;;;;5033513;28;20038;-72
2022/11/29 01:34:12;;;;;;;5.47;0.70;;;9.40;99.90;;;;;;5024839;28;20116;-71
2022/11/29 01:36:38;;;;;;;2.80;0.70;;;9.30;99.90;;;;;;5020833;28;20041;-72
2022/11/29 01:39:05;;;;;;;2.28;0.68;;;9.30;99.90;;;;;;5025368;28;20037;-71
2022/11/29 01:41:33;;;;;;;2.60;0.50;;;9.30;99.90;;;;;;5018856;28;20137;-73
2022/11/29 01:44:04;;;;;;;3.00;0.98;;;9.30;99.90;;;;;;5018932;28;20401;-72
2022/11/29 01:46:33;;;;;;;3.78;0.70;;;9.20;99.90;;;;;;5020770;28;20044;-71
2022/11/29 01:49:15;;;;;;;3.20;0.80;;;9.20;99.90;;;;;;5019279;28;20033;-72
2022/11/29 01:51:47;;;;;;;2.42;0.65;;;9.20;99.90;;;;;;5015206;28;20041;-71
2022/11/29 01:54:14;;;;;;;3.38;0.43;;;9.30;99.90;;;;;;5024230;28;20044;-71
2022/11/29 01:56:41;;;;;;;3.00;0.60;;;9.30;99.90;;;;;;5021903;28;20179;-71
2022/11/29 01:59:11;;;;;;;3.60;0.75;;;9.30;99.90;;;;;;5020252;28;20080;-73
2022/11/29 02:01:37;;;;;;;2.85;0.77;;;9.30;99.90;;;;;;5002568;28;20563;-71
2022/11/29 02:04:04;;;;;;;3.38;0.80;;;9.40;99.90;;;;;;5019451;28;20061;-72
2022/11/29 02:06:30;;;;;;;;;;;9.20;99.90;;;;;;5018783;28;20034;-72
2022/11/29 02:08:56;;;;;;;4.40;0.65;;;9.10;99.90;;;;;;5017860;28;19913;-72
2022/11/29 02:11:34;;;;;;;2.58;0.70;;;9.10;99.90;;;;;;5033862;28;20041;-71
2022/11/29 02:14:18;;;;;;;3.40;0.40;;;9.10;99.90;;;;;;5021989;28;20065;-73
2022/11/29 02:17:13;;;;;;;2.22;0.40;;;9.20;99.90;;;;;;5017913;28;20042;-71
2022/11/29 02:20:06;;;;;;;3.25;1.52;;;9.30;99.90;;;;;;5012738;28;20619;-72
2022/11/29 02:22:37;;;;;;;2.13;0.57;;;9.30;99.90;;;;;;5016483;28;20131;-71
2022/11/29 02:25:24;;;;;;;2.65;0.73;;;9.30;99.90;;;;;;5013626;28;20396;-72
2022/11/29 02:28:08;;;;;;;4.03;0.80;;;9.30;99.90;;;;;;4999641;28;20496;-72
2022/11/29 02:30:53;;;;;;;2.47;0.55;;;9.30;99.90;;;;;;5021339;28;20549;-72
2022/11/29 02:33:45;;;;;;;3.92;1.02;;;9.20;99.90;;;;;;5018334;28;20411;-71
2022/11/29 02:36:50;;;;;;;2.50;0.90;;;9.20;99.90;;;;;;5019906;28;20397;-72
2022/11/29 02:39:52;;;;;;;4.07;0.93;;;9.40;99.90;;;;;;5018735;28;20044;-71
2022/11/29 02:42:47;;;;;;;3.10;0.80;;;9.20;99.90;;;;;;5016375;28;20051;-72
2022/11/29 02:45:37;;;;;;;3.22;0.50;;;9.40;99.90;;;;;;5019780;28;20484;-72
2022/11/29 02:48:37;;;;;;;2.22;0.40;;;9.40;99.90;;;;;;5016898;28;20080;-71
2022/11/29 02:51:29;;;;;;;2.67;0.60;;;9.40;99.90;;;;;;5016144;28;20106;-71
2022/11/29 02:54:05;;;;;;;3.70;0.60;;;9.30;99.90;;;;;;5017070;28;20030;-71
2022/11/29 02:56:43;;;;;;;3.75;0.57;;;9.30;99.90;;;;;;5024375;28;20038;-72
2022/11/29 02:59:37;;;;;;;2.65;0.50;;;9.30;99.90;;;;;;5019043;28;20046;-71
2022/11/29 03:02:26;;;;;;;4.07;1.02;;;9.60;99.90;;;;;;5011853;28;20397;-71
2022/11/29 03:05:13;;;;;;;1.60;0.57;;;9.60;99.90;;;;;;5031067;28;20045;-71
2022/11/29 03:07:50;;;;;;;2.38;0.55;;;9.60;99.90;;;;;;5014221;28;20066;-71
2022/11/29 03:10:48;;;;;;;3.08;0.70;;;9.70;99.90;;;;;;5017923;28;20121;-72
2022/11/29 03:13:44;;;;;;;0.98;0.30;;;9.60;99.90;;;;;;5012999;28;20037;-72
2022/11/29 03:16:28;;;;;;;2.22;0.45;;;9.50;99.90;;;;;;5005984;28;20050;-72
2022/11/29 03:19:13;;;;;;;3.58;0.50;;;9.60;99.90;;;;;;5023761;28;20496;-71
2022/11/29 03:21:57;;;;;;;1.60;0.40;;;9.50;99.90;;;;;;5016614;28;20034;-71
2022/11/29 03:24:50;;;;;;;1.25;0.30;;;9.50;99.90;;;;;;5011772;28;20040;-72
2022/11/29 03:27:22;;;;;;;3.22;0.50;;;9.50;99.90;;;;;;5013366;28;20027;-71
2022/11/29 03:29:57;;;;;;;3.33;0.60;;;9.50;99.90;;;;;;5033617;28;20117;-71
2022/11/29 03:32:39;;;;;;;3.65;0.80;;;9.50;99.90;;;;;;5033755;28;20121;-72
2022/11/29 03:35:28;;;;;;;0.90;0.22;;;9.50;99.90;;;;;;5017196;28;20034;-72
2022/11/29 03:38:08;;;;;;;1.50;0.30;;;9.50;99.90;;;;;;5017126;28;20037;-71
2022/11/29 03:41:03;;;;;;;2.80;0.52;;;9.50;99.90;;;;;;5019176;28;20588;-71
2022/11/29 03:43:40;;;;;;;2.20;0.50;;;9.70;99.90;;;;;;5017170;28;20338;-72
2022/11/29 03:46:30;;;;;;;4.25;0.60;;;9.70;99.90;;;;;;5029642;28;20038;-72
2022/11/29 03:49:10;;;;;;;1.65;0.38;;;9.70;99.90;;;;;;5014004;28;20053;-72
2022/11/29 03:51:48;;;;;;;2.08;0.32;;;9.70;99.90;;;;;;5016808;28;20969;-72
2022/11/29 03:54:25;;;;;;;1.73;0.40;;;9.80;99.90;;;;;;5016748;28;20041;-71
2022/11/29 03:56:51;;;;;;;4.90;1.20;;;9.80;99.90;;;;;;5014193;28;20034;-73
2022/11/29 03:59:48;;;;;;;1.73;0.60;;;9.70;99.90;;;;;;5014874;28;20486;-71
2022/11/29 04:02:38;;;;;;;1.55;0.40;;;9.70;99.90;;;;;;5016159;28;20037;-71
2022/11/29 04:05:20;;;;;;;2.28;0.43;;;9.70;99.90;;;;;;5016806;28;20045;-71
2022/11/29 04:08:10;;;;;;;2.75;0.80;;;9.60;99.90;;;;;;5022040;28;20079;-72
2022/11/29 04:10:42;;;;;;;2.22;0.40;;;9.50;99.90;;;;;;5005496;28;20033;-71
2022/11/29 04:13:39;;;;;;;1.90;0.40;;;9.50;99.90;;;;;;5015414;28;20970;-72
2022/11/29 04:16:26;;;;;;;1.42;0.28;;;9.50;99.90;;;;;;5009989;28;20040;-71
2022/11/29 04:18:54;;;;;;;1.38;0.40;;;9.50;99.90;;;;;;5016587;28;20030;-71
2022/11/29 04:21:44;;;;;;;1.35;0.40;;;9.80;99.90;;;;;;5018738;28;20042;-72
2022/11/29 04:24:48;;;;;;;2.95;0.52;;;9.90;99.90;;;;;;5017017;28;20704;-71
2022/11/29 04:27:40;;;;;;;1.20;0.30;;;9.90;99.90;;;;;;5017351;28;20038;-75
2022/11/29 04:30:22;;;;;;;1.48;0.30;;;10.10;99.90;;;;;;5018637;28;20038;-74
2022/11/29 04:33:25;;;;;;;2.58;0.63;;;10.10;99.90;;;;;;5030180;28;20040;-74
2022/11/29 04:36:10;;;;;;;3.78;0.70;;;10.10;99.90;;;;;;5021583;28;20029;-74
2022/11/29 04:38:57;;;;;;;2.17;0.50;;;10.00;99.90;;;;;;5019878;28;20029;-73
2022/11/29 04:41:42;;;;;;;2.58;0.73;;;9.90;99.90;;;;;;5024666;28;20449;-75
2022/11/29 04:44:11;;;;;;;3.50;0.60;;;9.90;99.90;;;;;;5022422;28;20026;-72
2022/11/29 04:47:01;;;;;;;3.05;0.65;;;9.90;99.90;;;;;;5038476;28;20104;-71
2022/11/29 04:50:08;;;;;;;3.47;0.60;;;9.90;99.90;;;;;;5025582;28;20034;-73
2022/11/29 04:52:45;;;;;;;1.92;0.47;;;9.90;99.90;;;;;;5011407;28;20580;-71
2022/11/29 04:55:14;;;;;;;2.72;0.52;;;9.80;99.90;;;;;;5020066;28;20540;-71
2022/11/29 04:58:05;;;;;;;2.22;0.55;;;9.80;99.90;;;;;;5022784;28;20045;-72
2022/11/29 05:00:37;;;;;;;;;;;9.70;99.90;;;;;;5031428;28;20036;-72
2022/11/29 05:03:40;;;;;;;1.70;0.50;;;9.70;99.90;;;;;;5021878;28;19963;-72
2022/11/29 05:06:33;;;;;;;2.33;0.60;;;9.70;99.90;;;;;;5020576;28;20055;-71
2022/11/29 05:09:06;;;;;;;2.10;0.60;;;9.70;99.90;;;;;;5020651;28;20053;-71
2022/11/29 05:11:43;;;;;;;2.50;0.40;;;9.60;99.90;;;;;;5015728;28;20080;-73
2022/11/29 05:14:31;;;;;;;2.72;0.47;;;9.70;99.90;;;;;;5015530;28;20056;-73
2022/11/29 05:17:31;;;;;;;3.05;0.80;;;9.60;99.90;;;;;;5020064;28;20041;-72
2022/11/29 05:20:35;;;;;;;2.60;0.60;;;9.60;99.90;;;;;;5005935;28;20065;-72
2022/11/29 05:23:26;;;;;;;3.05;0.85;;;9.60;99.90;;;;;;4983482;28;20424;-73
2022/11/29 05:26:08;;;;;;;3.75;0.60;;;9.60;99.90;;;;;;5019722;28;20037;-71
2022/11/29 05:29:02;;;;;;;1.60;0.60;;;9.60;99.90;;;;;;5019134;28;20037;-73
2022/11/29 05:32:03;;;;;;;3.58;1.13;;;9.60;99.90;;;;;;5022347;28;20021;-72
2022/11/29 05:35:04;;;;;;;3.45;0.50;;;9.50;99.90;;;;;;5014877;28;20042;-73
2022/11/29 05:37:53;;;;;;;2.25;0.60;;;9.40;99.90;;;;;;5005042;28;20033;-71
2022/11/29 05:40:25;;;;;;;2.72;1.10;;;9.40;99.90;;;;;;5021197;28;20060;-70
2022/11/29 05:43:15;;;;;;;3.10;0.80;;;9.30;99.90;;;;;;5011714;28;20087;-72
2022/11/29 05:45:58;;;;;;;2.40;0.50;;;9.30;99.90;;;;;;5029217;28;20033;-73
2022/11/29 05:48:36;;;;;;;2.55;0.60;;;9.20;99.90;;;;;;5015966;28;20124;-71
2022/11/29 05:51:40;;;;;;;2.67;0.77;;;9.20;99.90;;;;;;5022886;28;20645;-71
2022/11/29 05:54:32;;;;;;;3.22;0.90;;;9.00;99.90;;;;;;5006612;28;20037;-72
2022/11/29 05:57:34;;;;;;;3.00;0.82;;;8.90;99.90;;;;;;5018427;28;20052;-72
2022/11/29 06:00:02;;;;;;;3.20;1.00;;;8.80;99.90;;;;;;5009209;28;20497;-72
2022/11/29 06:02:46;;;;;;;3.35;0.85;;;8.80;99.90;;;;;;5018072;28;20492;-73
2022/11/29 06:05:23;;;;;;;3.28;0.98;;;8.70;99.90;;;;;;5020227;28;20420;-72
2022/11/29 06:08:00;;;;;;;3.05;1.30;;;8.70;99.90;;;;;;5027246;28;20401;-71
2022/11/29 06:10:31;;;;;;;2.35;0.70;;;8.70;99.90;;;;;;5025291;28;20630;-71
2022/11/29 06:13:25;;;;;;;3.63;0.90;;;8.70;99.90;;;;;;5025758;28;20041;-73
2022/11/29 06:16:22;;;;;;;4.28;1.10;;;8.60;99.90;;;;;;5020351;28;20064;-72
2022/11/29 06:19:19;;;;;;;4.47;1.30;;;8.60;99.90;;;;;;5019609;28;20440;-72
2022/11/29 06:22:04;;;;;;;4.55;1.10;;;8.50;99.90;;;;;;5018029;28;20029;-72
2022/11/29 06:24:41;;;;;;;7.25;1.73;;;8.50;99.90;;;;;;5013226;28;20113;-72
2022/11/29 06:27:41;;;;;;;3.38;1.10;;;8.50;99.90;;;;;;5019439;28;20065;-71
2022/11/29 06:30:12;;;;;;;4.03;1.25;;;8.40;99.90;;;;;;5014572;28;20056;-72
2022/11/29 06:33:05;;;;;;;5.32;1.40;;;8.20;99.90;;;;;;5017487;28;20045;-71
2022/11/29 06:35:34;;;;;;;4.07;1.60;;;8.20;99.90;;;;;;5016212;28;20042;-72
2022/11/29 06:38:29;;;;;;;4.05;1.50;;;8.20;99.90;;;;;;5024558;28;20038;-72
2022/11/29 06:40:57;;;;;;;7.75;2.40;;;8.10;99.90;;;;;;5021172;28;20403;-72
2022/11/29 06:43:25;;;;;;;6.05;2.40;;;8.20;99.90;;;;;;5021234;28;20167;-72
2022/11/29 06:46:13;;;;;;;4.45;1.70;;;8.20;99.90;;;;;;5020513;28;20025;-72
2022/11/29 06:48:52;;;;;;;5.10;2.00;;;8.20;99.90;;;;;;5022455;28;20393;-72
2022/11/29 06:51:47;;;;;;;4.90;1.70;;;8.30;99.90;;;;;;5017642;28;20165;-72
2022/11/29 06:54:34;;;;;;;3.97;1.50;;;8.40;99.90;;;;;;5021580;28;20519;-72
2022/11/29 06:57:28;;;;;;;3.88;1.58;;;8.60;99.90;;;;;;5018188;28;20088;-72
2022/11/29 07:00:07;;;;;;;3.92;1.75;;;8.50;99.90;;;;;;5016893;28;20481;-72
2022/11/29 07:03:00;;;;;;;4.38;1.60;;;8.60;99.90;;;;;;5019615;28;20056;-72
2022/11/29 07:05:31;;;;;;;4.35;1.83;;;8.60;99.90;;;;;;4997538;28;20448;-72
2022/11/29 07:08:03;;;;;;;4.50;1.52;;;8.60;99.90;;;;;;5020875;28;20038;-71
2022/11/29 07:10:32;;;;;;;4.80;1.77;;;8.70;99.90;;;;;;5019224;28;20037;-72
2022/11/29 07:12:58;;;;;;;4.22;1.70;;;8.70;99.90;;;;;;5021747;28;20038;-74
2022/11/29 07:15:24;;;;;;;5.53;1.70;;;8.80;99.90;;;;;;5020957;28;20033;-71
2022/11/29 07:18:11;;;;;;;3.88;1.25;;;8.80;99.90;;;;;;5023237;28;20046;-72
2022/11/29 07:20:53;;;;;;;6.05;1.45;;;8.90;99.90;;;;;;5019300;28;20076;-72
2022/11/29 07:23:33;;;;;;;4.00;1.65;;;8.90;99.90;;;;;;5014617;28;20081;-73
2022/11/29 07:26:27;;;;;;;4.15;1.50;;;8.90;99.90;;;;;;5014863;28;20045;-71
2022/11/29 07:29:06;;;;;;;3.55;0.90;;;8.90;99.90;;;;;;5017278;28;20037;-72
2022/11/29 07:31:46;;;;;;;5.15;1.52;;;9.10;99.90;;;;;;5022444;28;20044;-74
2022/11/29 07:34:18;;;;;;;6.97;1.67;;;9.20;99.90;;;;;;5027870;28;20056;-75
2022/11/29 07:37:04;;;;;;;4.32;1.58;;;9.20;99.90;;;;;;5027625;28;20084;-74
2022/11/29 07:39:47;;;;;;;4.10;1.20;;;9.30;99.90;;;;;;5025262;28;20037;-74
2022/11/29 07:42:39;;;;;;;4.45;1.80;;;9.40;99.90;;;;;;5020129;28;20053;-74
2022/11/29 07:45:28;;;;;;;5.43;1.42;;;9.40;99.90;;;;;;5033774;28;20041;-74
2022/11/29 07:47:55;;;;;;;4.07;1.20;;;9.50;99.90;;;;;;5031805;28;20053;-74
2022/11/29 07:50:21;;;;;;;4.70;1.40;;;9.50;99.90;;;;;;5024468;28;20044;-73
2022/11/29 07:52:48;;;;;;;4.95;1.35;;;9.50;99.90;;;;;;5029175;28;20033;-74
2022/11/29 07:55:21;;;;;;;3.90;1.10;;;9.60;99.90;;;;;;5029431;28;20041;-74
2022/11/29 07:57:48;;;;;;;4.32;1.70;;;9.70;99.90;;;;;;5025445;28;20042;-75
2022/11/29 08:00:15;;;;;;;6.10;1.73;;;9.70;99.90;;;;;;5024482;28;20175;-73
2022/11/29 08:02:41;;;;;;;4.05;1.48;;;9.80;99.90;;;;;;5027965;28;20033;-75
2022/11/29 08:05:08;;;;;;;4.43;1.50;;;9.90;99.90;;;;;;5018679;28;20123;-73
2022/11/29 08:07:38;;;;;;;2.75;1.08;;;10.20;99.90;;;;;;5026784;28;20041;-75
2022/11/29 08:10:07;;;;;;;3.92;1.17;;;11.00;99.90;;;;;;5025945;28;20072;-74
2022/11/29 08:12:33;;;;;;;3.45;1.10;;;11.10;99.90;;;;;;5028185;28;20018;-74
2022/11/29 08:15:00;;;;;;;3.38;1.10;;;11.40;99.90;;;;;;5022071;28;20030;-74
2022/11/29 08:17:26;;;;;;;3.58;1.15;;;12.40;99.90;;;;;;5024198;28;20061;-74
2022/11/29 08:19:51;;;;;;;4.85;1.23;;;13.90;99.90;;;;;;5024288;28;20076;-74
2022/11/29 08:22:17;;;;;;;3.78;1.20;;;13.20;99.90;;;;;;5024505;28;20034;-74
2022/11/29 08:24:43;;;;;;;4.22;0.90;;;12.90;99.90;;;;;;5023458;28;20029;-75
2022/11/29 08:27:09;;;;;;;5.95;1.15;;;13.40;99.90;;;;;;5027484;28;20065;-76
2022/11/29 08:29:35;;;;;;;3.03;1.00;;;14.60;99.90;;;;;;5005108;28;20064;-74
2022/11/29 08:32:01;;;;;;;5.32;1.35;;;14.70;99.90;;;;;;5030130;28;20057;-74
2022/11/29 08:34:27;;;;;;;3.25;1.00;;;15.70;99.90;;;;;;5023201;28;20073;-75
2022/11/29 08:36:56;;;;;;;2.83;1.00;;;16.00;99.90;;;;;;5015825;28;20622;-75
2022/11/29 08:39:22;;;;;;;2.03;0.70;;;16.00;99.90;;;;;;5029657;28;20046;-75
2022/11/29 08:41:49;;;;;;;2.97;1.00;;;13.90;99.90;;;;;;5024472;28;20044;-75
2022/11/29 08:44:17;;;;;;;2.53;0.90;;;13.60;99.90;;;;;;5020453;28;20042;-74
2022/11/29 08:49:28;;;;;;;2.17;1.00;;;13.80;99.90;;;;;;5025883;28;20116;-74
2022/11/29 08:53:40;;;;;;;2.78;0.90;;;13.30;99.90;;;;;;5020975;28;20549;-74
2022/11/29 08:54:41;;;;;;;3.22;1.52;;;13.10;99.90;;;;;;5023475;28;20404;-72
2022/11/29 08:57:07;;;;;;;3.00;1.00;;;13.10;99.90;;;;;;5025783;28;20041;-72
2022/11/29 08:59:33;;;;;;;4.57;1.20;;;13.30;99.90;;;;;;5012979;28;20037;-72
2022/11/29 09:02:00;;;;;;;5.03;1.08;;;13.50;99.90;;;;;;5009469;28;20532;-72
2022/11/29 09:04:27;;;;;;;3.42;1.10;;;13.70;99.90;;;;;;5020121;28;21763;-71
2022/11/29 09:06:53;;;;;;;3.55;0.88;;;13.70;99.90;;;;;;5019878;28;20137;-71
2022/11/29 09:09:18;;;;;;;4.82;0.82;;;13.80;99.90;;;;;;5020034;28;20527;-72
2022/11/29 09:11:44;;;;;;;4.43;1.00;;;13.90;99.90;;;;;;5010878;28;20060;-72
2022/11/29 09:14:14;;;;;;;3.83;0.70;;;13.90;99.90;;;;;;5017952;28;20712;-72
2022/11/29 09:16:42;;;;;;;1.77;0.65;;;14.00;99.90;;;;;;5016329;28;20068;-73
2022/11/29 09:19:07;;;;;;;2.40;0.90;;;14.10;99.90;;;;;;5013733;28;20108;-72
2022/11/29 09:21:35;;;;;;;4.13;1.00;;;14.60;99.90;;;;;;5020007;28;20029;-72
2022/11/29 09:24:05;;;;;;;2.83;1.15;;;15.10;99.90;;;;;;4996685;28;20092;-72
2022/11/29 09:26:34;;;;;;;2.47;0.85;;;15.40;99.30;;;;;;5012934;28;20037;-73
2022/11/29 09:29:01;;;;;;;5.07;1.35;;;15.60;98.40;;;;;;5021319;28;20041;-71
2022/11/29 09:31:29;;;;;;;4.35;1.00;;;16.10;98.20;;;;;;5020030;28;20610;-73
2022/11/29 09:33:55;;;;;;;2.35;1.08;;;16.40;97.70;;;;;;5014461;28;20049;-72
2022/11/29 09:36:22;;;;;;;2.65;1.25;;;16.60;97.10;;;;;;5009271;28;20242;-72
2022/11/29 09:38:47;;;;;;;3.63;1.67;;;16.40;97.60;;;;;;5015060;28;20046;-72
2022/11/29 09:41:25;;;;;;;4.40;1.20;;;16.60;97.70;;;;;;5007479;28;20056;-71
2022/11/29 09:44:22;;;;;;;3.20;1.20;;;16.60;97.60;;;;;;5014481;28;20092;-72
2022/11/29 09:47:12;;;;;;;3.22;1.00;;;16.40;97.50;;;;;;5004620;28;20048;-71
2022/11/29 09:49:56;;;;;;;3.10;1.05;;;16.60;97.50;;;;;;5022922;28;20144;-71
2022/11/29 09:52:48;;;;;;;4.82;1.13;;;16.90;97.20;;;;;;5017834;28;20124;-71
2022/11/29 09:55:22;;;;;;;3.28;1.23;;;16.80;97.10;;;;;;5011398;28;20046;-72
2022/11/29 09:57:50;;;;;;;3.85;2.05;;;16.50;97.50;;;;;;5015952;28;20793;-72
2022/11/29 10:00:18;;;;;;;3.47;1.25;;;16.70;97.80;;;;;;5011888;28;20062;-71
2022/11/29 10:03:15;;;;;;;3.60;1.17;;;16.90;97.10;;;;;;5016170;28;20045;-72
2022/11/29 10:05:46;;;;;;;3.58;2.05;;;16.60;97.20;;;;;;5015291;28;20409;-72
2022/11/29 10:08:37;;;;;;;5.00;1.40;;;16.60;96.90;;;;;;5013216;28;20065;-72
2022/11/29 10:11:11;;;;;;;;;;;16.60;97.10;;;;;;5013890;28;20354;-72
2022/11/29 10:13:44;;;;;;;3.00;1.33;;;16.90;97.10;;;;;;5012949;28;19921;-71
2022/11/29 10:16:18;;;;;;;;;;;17.00;96.50;;;;;;5014628;28;20463;-71
2022/11/29 10:19:00;;;;;;;4.13;1.75;;;17.50;96.50;;;;;;5015220;28;20031;-72
2022/11/29 10:21:37;;;;;;;3.55;1.50;;;17.50;96.20;;;;;;5011992;28;20026;-73
2022/11/29 10:24:19;;;;;;;3.50;1.40;;;17.80;96.30;;;;;;5017268;28;20041;-72
2022/11/29 10:26:45;;;;;;;3.33;1.05;;;17.50;96.00;;;;;;5022494;28;20034;-72
2022/11/29 10:29:15;;;;;;;3.15;1.23;;;18.00;95.40;;;;;;5017495;28;20026;-73
2022/11/29 10:31:48;;;;;;;3.85;1.20;;;18.50;94.90;;;;;;5017516;28;20094;-72
2022/11/29 10:34:20;;;;;;;4.20;1.45;;;18.40;94.60;;;;;;5016308;28;20037;-72
2022/11/29 10:36:47;;;;;;;3.45;1.50;;;18.60;94.60;;;;;;5024426;28;20524;-72
2022/11/29 10:39:28;;;;;;;2.97;1.30;;;19.10;94.10;;;;;;5029245;28;20041;-71
2022/11/29 10:41:56;;;;;;;3.83;1.23;;;19.40;93.90;;;;;;5031757;28;20045;-72
2022/11/29 10:44:23;;;;;;;2.50;1.05;;;19.90;93.10;;;;;;5019700;28;20041;-72
2022/11/29 10:46:49;;;;;;;3.97;1.30;;;19.60;93.30;;;;;;5015989;28;20034;-71
2022/11/29 10:49:19;;;;;;;5.65;2.72;;;18.90;93.70;;;;;;5018969;28;20164;-72
2022/11/29 10:51:46;;;;;;;5.80;1.50;;;18.40;94.90;;;;;;5024144;28;20057;-72
2022/11/29 10:54:12;;;;;;;3.60;1.55;;;18.90;94.40;;;;;;5015032;28;20076;-72
2022/11/29 10:56:39;;;;;;;5.50;1.73;;;19.00;94.30;;;;;;5009790;28;20481;-72
2022/11/29 10:59:08;;;;;;;3.70;1.45;;;19.70;94.00;;;;;;5021715;28;20037;-72
2022/11/29 11:01:40;;;;;;;3.70;1.20;;;19.90;93.60;;;;;;5017701;28;20045;-72
2022/11/29 11:04:13;;;;;;;3.92;1.50;;;20.00;93.60;;;;;;5007549;28;20072;-72
2022/11/29 11:06:50;;;;;;;3.58;1.30;;;20.20;93.40;;;;;;5025047;28;20040;-73
2022/11/29 11:09:20;;;;;;;4.40;1.70;;;20.30;93.30;;;;;;5014768;28;20038;-73
2022/11/29 11:12:12;;;;;;;2.75;1.30;;;21.10;93.10;;;;;;5018521;28;20029;-73
2022/11/29 11:14:38;;;;;;;4.55;1.67;;;20.80;92.90;;;;;;5009520;28;20506;-72
2022/11/29 11:17:14;;;;;;;3.53;1.48;;;21.20;92.70;;;;;;5014962;28;20038;-72
2022/11/29 11:19:41;;;;;;;3.60;1.48;;;21.30;92.40;;;;;;5015113;28;20103;-72
2022/11/29 11:22:18;;;;;;;;;;;21.00;92.40;;;;;;5021793;28;20037;-72
2022/11/29 11:24:45;;;;;;;2.50;1.55;;;21.20;92.10;;;;;;5010094;28;19967;-71
2022/11/29 11:27:11;;;;;;;2.60;1.20;;;21.20;91.60;;;;;;5016697;28;20037;-72
2022/11/29 11:29:43;;;;;;;4.28;1.10;;;21.20;91.60;;;;;;5015636;28;20559;-72
2022/11/29 11:32:19;;;;;;;2.58;1.33;;;21.70;91.30;;;;;;5012671;28;20113;-72
2022/11/29 11:34:57;;;;;;;2.42;1.17;;;22.60;90.90;;;;;;5018436;28;20056;-71
2022/11/29 11:37:26;;;;;;;2.78;1.30;;;22.00;90.70;;;;;;5012738;28;20092;-72
2022/11/29 11:40:17;;;;;;;3.72;1.80;;;22.40;90.80;;;;;;5017867;28;20042;-72
2022/11/29 11:42:43;;;;;;;4.22;1.67;;;22.60;90.70;;;;;;5014779;28;20056;-72
2022/11/29 11:45:09;;;;;;;3.65;2.05;;;22.80;90.50;;;;;;4994448;28;20045;-71
2022/11/29 11:47:56;;;;;;;2.88;1.52;;;23.50;90.20;;;;;;5018544;28;20038;-72
2022/11/29 11:50:29;;;;;;;3.92;1.40;;;23.60;90.00;;;;;;5015571;28;20509;-72
2022/11/29 11:53:17;;;;;;;3.70;1.52;;;23.10;90.20;;;;;;5015279;28;20041;-72
2022/11/29 11:55:59;;;;;;;3.55;1.60;;;23.70;90.00;;;;;;5011561;28;20038;-72
2022/11/29 11:58:46;;;;;;;4.60;1.83;;;24.10;89.60;;;;;;5006602;28;20033;-71
2022/11/29 12:01:22;;;;;;;5.40;1.92;;;22.50;89.40;;;;;;4999570;28;20145;-72
2022/11/29 12:04:00;;;;;;;3.22;1.23;;;22.30;90.50;;;;;;5010643;28;20034;-72
2022/11/29 12:06:33;;;;;;;;;;;22.60;90.30;;;;;;5010051;28;20057;-74
2022/11/29 12:09:25;;;;;;;4.68;1.35;;;22.80;90.00;;;;;;5019820;28;19917;-75
2022/11/29 12:12:00;;;;;;;2.95;1.52;;;23.20;89.90;;;;;;5007925;28;20545;-74
2022/11/29 12:14:41;;;;;;;4.22;1.67;;;23.70;89.10;;;;;;5009185;28;20178;-74
2022/11/29 12:17:30;;;;;;;3.45;1.33;;;24.00;88.00;;;;;;5012334;28;20515;-74
2022/11/29 12:19:55;;;;;;;3.38;1.40;;;23.80;88.50;;;;;;5028922;28;20041;-74
2022/11/29 12:22:26;;;;;;;3.50;1.52;;;24.30;87.70;;;;;;5011097;28;20113;-75
2022/11/29 12:25:00;;;;;;;4.82;1.60;;;23.30;88.90;;;;;;5015288;28;20057;-74
2022/11/29 12:27:26;;;;;;;3.97;1.30;;;23.40;87.90;;;;;;5015197;28;20128;-75
2022/11/29 12:29:52;;;;;;;3.35;1.23;;;23.70;87.10;;;;;;5023730;28;20557;-75
2022/11/29 12:32:43;;;;;;;3.42;1.70;;;24.20;86.50;;;;;;5022006;28;20052;-76
2022/11/29 12:35:16;;;;;;;6.70;1.45;;;25.30;85.10;;;;;;5003946;28;20165;-75
2022/11/29 12:37:57;;;;;;;3.33;1.65;;;25.70;84.20;;;;;;5007435;28;20509;-74
2022/11/29 12:40:29;;;;;;;3.67;1.77;;;25.00;84.60;;;;;;5018830;28;20033;-75
2022/11/29 12:43:36;;;;;;;4.45;1.98;;;23.10;87.50;;;;;;5009581;28;20037;-75
2022/11/29 12:46:13;;;;;;;3.67;1.67;;;22.50;88.60;;;;;;4969671;28;20034;-74
2022/11/29 12:48:45;;;;;;;4.22;1.70;;;21.40;89.30;;;;;;5004376;28;20041;-74
2022/11/29 12:51:29;;;;;;;4.18;1.83;;;21.00;90.50;;;;;;5004032;28;20079;-76
2022/11/29 12:54:23;;;;;;;4.10;1.77;;;20.70;91.00;;;;;;5015220;28;20042;-74
2022/11/29 12:56:57;;;;;;;4.00;1.77;;;23.20;89.70;;;;;;5014591;28;20052;-75
2022/11/29 12:59:26;;;;;;;3.30;1.50;;;23.40;87.50;;;;;;5019219;28;20448;-76
2022/11/29 13:02:13;;;;;;;3.42;1.38;;;22.10;89.30;;;;;;5014192;28;20041;-74
2022/11/29 13:04:58;;;;;;;3.47;1.48;;;23.80;88.10;;;;;;5020561;28;20506;-75
2022/11/29 13:07:36;;;;;;;3.35;1.63;;;23.30;86.00;;;;;;5019862;28;20029;-75
2022/11/29 13:10:11;;;;;;;3.67;1.50;;;25.00;85.60;;;;;;5022564;28;20034;-75
2022/11/29 13:12:51;;;;;;;5.22;1.48;;;24.90;84.50;;;;;;5026668;28;20040;-75
2022/11/29 13:15:39;;;;;;;2.83;1.70;;;25.00;84.50;;;;;;5021522;28;20038;-75
2022/11/29 13:18:10;;;;;;;2.63;1.25;;;24.80;84.70;;;;;;5035827;28;20046;-75
2022/11/29 13:21:33;;;;;;;4.25;1.33;;;25.10;84.10;;;;;;5020975;28;20455;-75
2022/11/29 13:24:08;;;;;;;3.33;1.27;;;24.80;83.50;;;;;;4977745;28;20080;-74
2022/11/29 13:26:36;;;;;;;3.70;1.33;;;24.20;84.80;;;;;;5021998;28;20029;-75
2022/11/29 13:29:02;;;;;;;3.28;1.45;;;24.80;84.00;;;;;;5021434;28;20081;-74
2022/11/29 13:31:29;;;;;;;6.15;2.28;;;25.20;83.50;;;;;;5017516;28;20472;-75
2022/11/29 13:34:12;;;;;;;5.28;1.77;;;24.70;83.40;;;;;;5011494;28;20072;-73
2022/11/29 13:36:57;;;;;;;3.80;1.65;;;24.50;84.20;;;;;;5018851;28;20048;-74
2022/11/29 13:39:38;;;;;;;5.28;1.63;;;25.10;83.60;;;;;;5020543;28;20038;-77
2022/11/29 13:42:23;;;;;;;4.03;1.88;;;25.10;83.50;;;;;;5016361;28;20038;-76
2022/11/29 13:45:13;;;;;;;4.80;2.00;;;23.10;83.60;;;;;;5025486;28;20420;-77
2022/11/29 13:47:50;;;;;;;3.95;1.83;;;24.50;84.30;;;;;;5020279;28;20041;-75